sensor_id;sensor_type;location;lat;lon;timestamp;pressure;altitude;pressure_sealevel;temperature;humidity
4167;BME280;2097;51.104;7.150;2022-07-23T00:00:05;99052.72;;;16.42;97.66
4167;BME280;2097;51.104;7.150;2022-07-23T00:02:32;99065.09;;;16.40;98.00
4167;BME280;2097;51.104;7.150;2022-07-23T00:05:00;99057.50;;;16.37;98.38
4167;BME280;2097;51.104;7.150;2022-07-23T00:07:27;99064.41;;;16.38;98.73
4167;BME280;2097;51.104;7.150;2022-07-23T00:09:54;99060.13;;;16.37;99.04
4167;BME280;2097;51.104;7.150;2022-07-23T00:12:21;99060.00;;;16.38;99.18
4167;BME280;2097;51.104;7.150;2022-07-23T00:14:47;99060.38;;;16.34;99.09
4167;BME280;2097;51.104;7.150;2022-07-23T00:17:14;99077.03;;;16.33;99.66
4167;BME280;2097;51.104;7.150;2022-07-23T00:19:41;99072.09;;;16.28;100.00
4167;BME280;2097;51.104;7.150;2022-07-23T00:22:09;99079.47;;;16.23;100.00
4167;BME280;2097;51.104;7.150;2022-07-23T00:24:36;99078.63;;;16.23;100.00
4167;BME280;2097;51.104;7.150;2022-07-23T00:27:03;99064.94;;;16.19;100.00
4167;BME280;2097;51.104;7.150;2022-07-23T00:29:30;99044.56;;;16.12;100.00
4167;BME280;2097;51.104;7.150;2022-07-23T00:31:56;99058.84;;;16.08;100.00
4167;BME280;2097;51.104;7.150;2022-07-23T00:34:23;99054.19;;;16.00;100.00
4167;BME280;2097;51.104;7.150;2022-07-23T00:36:50;99066.69;;;16.08;100.00
4167;BME280;2097;51.104;7.150;2022-07-23T00:39:20;99057.88;;;16.09;100.00
4167;BME280;2097;51.104;7.150;2022-07-23T00:41:47;99061.44;;;16.08;100.00
4167;BME280;2097;51.104;7.150;2022-07-23T00:44:15;99057.53;;;16.02;100.00
4167;BME280;2097;51.104;7.150;2022-07-23T00:46:45;99063.25;;;16.07;100.00
4167;BME280;2097;51.104;7.150;2022-07-23T00:49:12;99058.13;;;16.06;100.00
4167;BME280;2097;51.104;7.150;2022-07-23T00:51:39;99061.69;;;16.05;100.00
4167;BME280;2097;51.104;7.150;2022-07-23T00:54:06;99053.09;;;16.03;100.00
4167;BME280;2097;51.104;7.150;2022-07-23T00:56:34;99046.09;;;16.03;100.00
4167;BME280;2097;51.104;7.150;2022-07-23T00:59:01;99054.69;;;16.05;100.00
4167;BME280;2097;51.104;7.150;2022-07-23T01:01:28;99057.16;;;16.07;100.00
4167;BME280;2097;51.104;7.150;2022-07-23T01:03:55;99062.31;;;16.08;100.00
4167;BME280;2097;51.104;7.150;2022-07-23T01:06:22;99064.06;;;16.08;100.00
4167;BME280;2097;51.104;7.150;2022-07-23T01:08:48;99068.34;;;16.09;100.00
4167;BME280;2097;51.104;7.150;2022-07-23T01:11:15;99065.97;;;16.06;100.00
4167;BME280;2097;51.104;7.150;2022-07-23T01:13:45;99060.28;;;16.01;100.00
4167;BME280;2097;51.104;7.150;2022-07-23T01:16:12;99056.22;;;15.97;100.00
4167;BME280;2097;51.104;7.150;2022-07-23T01:18:38;99051.78;;;15.98;100.00
4167;BME280;2097;51.104;7.150;2022-07-23T01:21:05;99058.84;;;15.97;100.00
4167;BME280;2097;51.104;7.150;2022-07-23T01:23:34;99051.06;;;15.96;100.00
4167;BME280;2097;51.104;7.150;2022-07-23T01:26:01;99054.63;;;15.95;100.00
4167;BME280;2097;51.104;7.150;2022-07-23T01:28:27;99050.25;;;15.95;100.00
4167;BME280;2097;51.104;7.150;2022-07-23T01:30:54;99048.59;;;15.94;100.00
4167;BME280;2097;51.104;7.150;2022-07-23T01:33:21;99050.34;;;15.94;100.00
4167;BME280;2097;51.104;7.150;2022-07-23T01:35:48;99033.81;;;15.93;100.00
4167;BME280;2097;51.104;7.150;2022-07-23T01:38:14;99036.78;;;15.89;100.00
4167;BME280;2097;51.104;7.150;2022-07-23T01:40:43;99030.50;;;15.91;100.00
4167;BME280;2097;51.104;7.150;2022-07-23T01:43:09;99022.72;;;15.90;100.00
4167;BME280;2097;51.104;7.150;2022-07-23T01:45:36;99022.72;;;15.90;100.00
4167;BME280;2097;51.104;7.150;2022-07-23T01:48:03;99029.63;;;15.91;100.00
4167;BME280;2097;51.104;7.150;2022-07-23T01:50:30;99026.06;;;15.92;100.00
4167;BME280;2097;51.104;7.150;2022-07-23T01:52:57;99029.41;;;15.94;100.00
4167;BME280;2097;51.104;7.150;2022-07-23T01:55:24;99025.97;;;15.93;100.00
4167;BME280;2097;51.104;7.150;2022-07-23T01:57:52;99015.09;;;15.87;100.00
4167;BME280;2097;51.104;7.150;2022-07-23T02:00:19;99025.25;;;15.91;100.00
4167;BME280;2097;51.104;7.150;2022-07-23T02:02:46;99030.72;;;15.88;100.00
4167;BME280;2097;51.104;7.150;2022-07-23T02:05:12;99041.41;;;15.85;100.00
4167;BME280;2097;51.104;7.150;2022-07-23T02:07:39;99039.97;;;15.81;100.00
4167;BME280;2097;51.104;7.150;2022-07-23T02:10:07;99043.75;;;15.77;100.00
4167;BME280;2097;51.104;7.150;2022-07-23T02:12:34;99032.81;;;15.72;100.00
4167;BME280;2097;51.104;7.150;2022-07-23T02:15:03;99030.53;;;15.68;100.00
4167;BME280;2097;51.104;7.150;2022-07-23T02:17:29;99029.44;;;15.59;100.00
4167;BME280;2097;51.104;7.150;2022-07-23T02:19:56;99027.06;;;15.56;100.00
4167;BME280;2097;51.104;7.150;2022-07-23T02:22:23;99024.53;;;15.55;100.00
4167;BME280;2097;51.104;7.150;2022-07-23T02:24:50;99024.66;;;15.53;100.00
4167;BME280;2097;51.104;7.150;2022-07-23T02:27:16;99019.44;;;15.53;100.00
4167;BME280;2097;51.104;7.150;2022-07-23T02:29:43;99028.09;;;15.54;100.00
4167;BME280;2097;51.104;7.150;2022-07-23T02:32:11;99023.81;;;15.53;100.00
4167;BME280;2097;51.104;7.150;2022-07-23T02:34:38;99000.19;;;15.31;100.00
4167;BME280;2097;51.104;7.150;2022-07-23T02:37:05;99032.34;;;15.44;100.00
4167;BME280;2097;51.104;7.150;2022-07-23T02:39:34;99033.41;;;15.41;100.00
4167;BME280;2097;51.104;7.150;2022-07-23T02:42:01;99025.06;;;15.36;100.00
4167;BME280;2097;51.104;7.150;2022-07-23T02:44:27;99016.00;;;15.29;100.00
4167;BME280;2097;51.104;7.150;2022-07-23T02:46:54;99024.13;;;15.25;100.00
4167;BME280;2097;51.104;7.150;2022-07-23T02:49:23;99011.25;;;15.11;100.00
4167;BME280;2097;51.104;7.150;2022-07-23T02:51:50;99026.69;;;15.14;100.00
4167;BME280;2097;51.104;7.150;2022-07-23T02:54:17;99002.22;;;14.91;100.00
4167;BME280;2097;51.104;7.150;2022-07-23T02:56:43;99026.72;;;15.01;100.00
4167;BME280;2097;51.104;7.150;2022-07-23T02:59:10;99024.56;;;14.95;100.00
4167;BME280;2097;51.104;7.150;2022-07-23T03:01:37;99030.97;;;14.91;100.00
4167;BME280;2097;51.104;7.150;2022-07-23T03:04:04;99028.78;;;14.85;100.00
4167;BME280;2097;51.104;7.150;2022-07-23T03:06:32;99013.16;;;14.73;100.00
4167;BME280;2097;51.104;7.150;2022-07-23T03:08:59;99022.53;;;14.76;100.00
4167;BME280;2097;51.104;7.150;2022-07-23T03:11:29;99019.75;;;14.66;100.00
4167;BME280;2097;51.104;7.150;2022-07-23T03:13:55;99019.97;;;14.63;100.00
4167;BME280;2097;51.104;7.150;2022-07-23T03:16:22;99021.13;;;14.59;100.00
4167;BME280;2097;51.104;7.150;2022-07-23T03:18:49;99017.91;;;14.56;100.00
4167;BME280;2097;51.104;7.150;2022-07-23T03:21:16;99017.38;;;14.51;100.00
4167;BME280;2097;51.104;7.150;2022-07-23T03:23:44;99012.38;;;14.48;100.00
4167;BME280;2097;51.104;7.150;2022-07-23T03:26:10;98949.19;;;14.05;100.00
4167;BME280;2097;51.104;7.150;2022-07-23T03:28:37;99012.06;;;14.40;100.00
4167;BME280;2097;51.104;7.150;2022-07-23T03:31:04;99010.50;;;14.37;100.00
4167;BME280;2097;51.104;7.150;2022-07-23T03:33:31;99016.75;;;14.35;100.00
4167;BME280;2097;51.104;7.150;2022-07-23T03:35:58;98964.84;;;13.93;100.00
4167;BME280;2097;51.104;7.150;2022-07-23T03:38:24;99026.91;;;14.27;100.00
4167;BME280;2097;51.104;7.150;2022-07-23T03:40:52;99026.38;;;14.22;100.00
4167;BME280;2097;51.104;7.150;2022-07-23T03:43:19;99026.69;;;14.17;100.00
4167;BME280;2097;51.104;7.150;2022-07-23T03:45:46;99034.81;;;14.13;100.00
4167;BME280;2097;51.104;7.150;2022-07-23T03:48:13;99036.69;;;14.11;100.00
4167;BME280;2097;51.104;7.150;2022-07-23T03:50:39;99034.16;;;14.09;100.00
4167;BME280;2097;51.104;7.150;2022-07-23T03:53:06;99038.66;;;14.07;100.00
4167;BME280;2097;51.104;7.150;2022-07-23T03:55:33;99041.38;;;14.06;100.00
4167;BME280;2097;51.104;7.150;2022-07-23T03:58:01;99038.97;;;14.03;100.00
4167;BME280;2097;51.104;7.150;2022-07-23T04:00:28;99033.03;;;14.01;100.00
4167;BME280;2097;51.104;7.150;2022-07-23T04:02:55;99023.13;;;13.93;100.00
4167;BME280;2097;51.104;7.150;2022-07-23T04:05:22;99035.03;;;13.97;100.00
4167;BME280;2097;51.104;7.150;2022-07-23T04:07:48;99028.00;;;13.98;100.00
4167;BME280;2097;51.104;7.150;2022-07-23T04:10:15;99030.63;;;13.98;100.00
4167;BME280;2097;51.104;7.150;2022-07-23T04:12:42;99031.34;;;14.00;100.00
4167;BME280;2097;51.104;7.150;2022-07-23T04:15:10;99026.88;;;14.02;100.00
4167;BME280;2097;51.104;7.150;2022-07-23T04:17:37;99032.09;;;14.02;100.00
4167;BME280;2097;51.104;7.150;2022-07-23T04:20:07;99027.69;;;14.02;100.00
4167;BME280;2097;51.104;7.150;2022-07-23T04:22:34;99033.75;;;14.03;100.00
4167;BME280;2097;51.104;7.150;2022-07-23T04:25:01;99038.13;;;14.02;100.00
4167;BME280;2097;51.104;7.150;2022-07-23T04:27:28;99034.69;;;14.02;100.00
4167;BME280;2097;51.104;7.150;2022-07-23T04:29:55;99038.97;;;14.03;100.00
4167;BME280;2097;51.104;7.150;2022-07-23T04:32:23;99036.38;;;14.03;100.00
4167;BME280;2097;51.104;7.150;2022-07-23T04:34:50;99044.72;;;14.08;100.00
4167;BME280;2097;51.104;7.150;2022-07-23T04:37:17;99043.78;;;14.09;100.00
4167;BME280;2097;51.104;7.150;2022-07-23T04:39:43;99053.28;;;14.10;100.00
4167;BME280;2097;51.104;7.150;2022-07-23T04:42:10;99049.94;;;14.08;100.00
4167;BME280;2097;51.104;7.150;2022-07-23T04:44:37;99054.44;;;14.06;100.00
4167;BME280;2097;51.104;7.150;2022-07-23T04:47:04;99055.38;;;14.05;100.00
4167;BME280;2097;51.104;7.150;2022-07-23T04:49:32;99061.53;;;14.04;100.00
4167;BME280;2097;51.104;7.150;2022-07-23T04:51:59;99063.19;;;14.05;100.00
4167;BME280;2097;51.104;7.150;2022-07-23T04:54:26;99066.75;;;14.04;100.00
4167;BME280;2097;51.104;7.150;2022-07-23T04:56:52;99075.31;;;14.06;100.00
4167;BME280;2097;51.104;7.150;2022-07-23T04:59:19;99085.44;;;14.10;100.00
4167;BME280;2097;51.104;7.150;2022-07-23T05:01:46;99063.94;;;14.07;100.00
4167;BME280;2097;51.104;7.150;2022-07-23T05:04:13;99069.69;;;14.12;100.00
4167;BME280;2097;51.104;7.150;2022-07-23T05:06:41;99077.56;;;14.24;100.00
4167;BME280;2097;51.104;7.150;2022-07-23T05:09:08;99085.78;;;14.31;100.00
4167;BME280;2097;51.104;7.150;2022-07-23T05:11:34;99090.59;;;14.37;100.00
4167;BME280;2097;51.104;7.150;2022-07-23T05:14:01;99088.31;;;14.45;100.00
4167;BME280;2097;51.104;7.150;2022-07-23T05:16:28;99095.00;;;14.49;100.00
4167;BME280;2097;51.104;7.150;2022-07-23T05:18:55;99098.13;;;14.54;100.00
4167;BME280;2097;51.104;7.150;2022-07-23T05:21:21;99103.84;;;14.59;100.00
4167;BME280;2097;51.104;7.150;2022-07-23T05:23:50;99101.69;;;14.65;100.00
4167;BME280;2097;51.104;7.150;2022-07-23T05:26:16;99108.03;;;14.74;100.00
4167;BME280;2097;51.104;7.150;2022-07-23T05:28:43;99102.19;;;14.82;100.00
4167;BME280;2097;51.104;7.150;2022-07-23T05:31:10;99107.72;;;14.90;100.00
4167;BME280;2097;51.104;7.150;2022-07-23T05:33:37;99040.44;;;14.57;100.00
4167;BME280;2097;51.104;7.150;2022-07-23T05:36:04;99107.78;;;15.01;100.00
4167;BME280;2097;51.104;7.150;2022-07-23T05:38:32;99116.75;;;15.10;100.00
4167;BME280;2097;51.104;7.150;2022-07-23T05:41:01;99117.25;;;15.15;100.00
4167;BME280;2097;51.104;7.150;2022-07-23T05:43:28;99121.44;;;15.17;100.00
4167;BME280;2097;51.104;7.150;2022-07-23T05:45:55;99119.34;;;15.22;100.00
4167;BME280;2097;51.104;7.150;2022-07-23T05:48:22;99118.28;;;15.25;100.00
4167;BME280;2097;51.104;7.150;2022-07-23T05:50:49;99130.22;;;15.29;100.00
4167;BME280;2097;51.104;7.150;2022-07-23T05:53:15;99121.22;;;15.33;100.00
4167;BME280;2097;51.104;7.150;2022-07-23T05:55:42;99116.38;;;15.39;100.00
4167;BME280;2097;51.104;7.150;2022-07-23T05:58:10;99119.00;;;15.39;100.00
4167;BME280;2097;51.104;7.150;2022-07-23T06:00:37;99120.66;;;15.40;100.00
4167;BME280;2097;51.104;7.150;2022-07-23T06:03:04;99130.19;;;15.41;100.00
4167;BME280;2097;51.104;7.150;2022-07-23T06:05:31;99124.50;;;15.47;100.00
4167;BME280;2097;51.104;7.150;2022-07-23T06:07:57;99123.13;;;15.54;100.00
4167;BME280;2097;51.104;7.150;2022-07-23T06:10:24;99130.31;;;15.63;100.00
4167;BME280;2097;51.104;7.150;2022-07-23T06:12:51;99122.84;;;15.70;100.00
4167;BME280;2097;51.104;7.150;2022-07-23T06:15:19;99125.13;;;15.74;100.00
4167;BME280;2097;51.104;7.150;2022-07-23T06:17:46;99126.34;;;15.81;100.00
4167;BME280;2097;51.104;7.150;2022-07-23T06:20:13;99127.44;;;15.90;100.00
4167;BME280;2097;51.104;7.150;2022-07-23T06:22:40;99132.22;;;15.96;100.00
4167;BME280;2097;51.104;7.150;2022-07-23T06:25:07;99130.84;;;16.02;100.00
4167;BME280;2097;51.104;7.150;2022-07-23T06:27:34;99129.31;;;16.11;100.00
4167;BME280;2097;51.104;7.150;2022-07-23T06:30:01;99128.63;;;16.20;100.00
4167;BME280;2097;51.104;7.150;2022-07-23T06:32:29;99134.13;;;16.28;100.00
4167;BME280;2097;51.104;7.150;2022-07-23T06:34:56;99141.22;;;16.38;100.00
4167;BME280;2097;51.104;7.150;2022-07-23T06:37:23;99140.53;;;16.47;100.00
4167;BME280;2097;51.104;7.150;2022-07-23T06:39:49;99135.16;;;16.49;100.00
4167;BME280;2097;51.104;7.150;2022-07-23T06:42:16;99143.63;;;16.52;100.00
4167;BME280;2097;51.104;7.150;2022-07-23T06:44:43;99130.88;;;16.48;100.00
4167;BME280;2097;51.104;7.150;2022-07-23T06:47:10;99150.66;;;16.63;100.00
4167;BME280;2097;51.104;7.150;2022-07-23T06:49:38;99146.97;;;16.65;100.00
4167;BME280;2097;51.104;7.150;2022-07-23T06:52:06;99151.03;;;16.69;100.00
4167;BME280;2097;51.104;7.150;2022-07-23T06:54:33;99142.94;;;16.72;100.00
4167;BME280;2097;51.104;7.150;2022-07-23T06:57:00;99140.91;;;16.76;100.00
4167;BME280;2097;51.104;7.150;2022-07-23T06:59:27;99147.09;;;16.86;100.00
4167;BME280;2097;51.104;7.150;2022-07-23T07:01:54;99148.31;;;16.93;100.00
4167;BME280;2097;51.104;7.150;2022-07-23T07:04:20;99149.50;;;17.00;100.00
4167;BME280;2097;51.104;7.150;2022-07-23T07:06:48;99146.50;;;17.04;100.00
4167;BME280;2097;51.104;7.150;2022-07-23T07:09:15;99055.97;;;16.45;100.00
4167;BME280;2097;51.104;7.150;2022-07-23T07:11:43;99157.63;;;17.08;100.00
4167;BME280;2097;51.104;7.150;2022-07-23T07:14:10;99163.59;;;17.10;100.00
4167;BME280;2097;51.104;7.150;2022-07-23T07:16:36;99154.63;;;17.12;100.00
4167;BME280;2097;51.104;7.150;2022-07-23T07:19:04;99159.41;;;17.18;100.00
4167;BME280;2097;51.104;7.150;2022-07-23T07:21:30;99153.91;;;17.21;100.00
4167;BME280;2097;51.104;7.150;2022-07-23T07:23:58;99164.78;;;17.38;100.00
4167;BME280;2097;51.104;7.150;2022-07-23T07:26:25;99169.41;;;17.46;100.00
4167;BME280;2097;51.104;7.150;2022-07-23T07:28:52;99170.34;;;17.56;100.00
4167;BME280;2097;51.104;7.150;2022-07-23T07:31:19;99174.25;;;17.72;100.00
4167;BME280;2097;51.104;7.150;2022-07-23T07:33:46;99179.81;;;17.90;100.00
4167;BME280;2097;51.104;7.150;2022-07-23T07:36:13;99170.06;;;18.12;100.00
4167;BME280;2097;51.104;7.150;2022-07-23T07:38:40;99179.28;;;18.38;100.00
4167;BME280;2097;51.104;7.150;2022-07-23T07:41:08;99183.19;;;18.64;99.72
4167;BME280;2097;51.104;7.150;2022-07-23T07:43:35;99185.59;;;18.97;98.75
4167;BME280;2097;51.104;7.150;2022-07-23T07:46:02;99097.00;;;18.67;97.64
4167;BME280;2097;51.104;7.150;2022-07-23T07:48:29;99199.09;;;19.33;96.92
4167;BME280;2097;51.104;7.150;2022-07-23T07:50:56;99192.19;;;19.42;96.68
4167;BME280;2097;51.104;7.150;2022-07-23T07:53:23;99192.63;;;19.47;96.34
4167;BME280;2097;51.104;7.150;2022-07-23T07:55:50;99194.56;;;19.45;96.66
4167;BME280;2097;51.104;7.150;2022-07-23T07:58:18;99196.41;;;19.53;96.10
4167;BME280;2097;51.104;7.150;2022-07-23T08:00:45;99197.53;;;19.60;95.58
4167;BME280;2097;51.104;7.150;2022-07-23T08:03:11;99204.47;;;19.61;95.10
4167;BME280;2097;51.104;7.150;2022-07-23T08:05:38;99200.00;;;19.52;95.23
4167;BME280;2097;51.104;7.150;2022-07-23T08:08:05;99199.97;;;19.43;95.12
4167;BME280;2097;51.104;7.150;2022-07-23T08:10:35;99215.00;;;19.32;95.21
4167;BME280;2097;51.104;7.150;2022-07-23T08:13:02;99215.38;;;19.18;95.19
4167;BME280;2097;51.104;7.150;2022-07-23T08:15:30;98986.16;;;17.71;94.87
4167;BME280;2097;51.104;7.150;2022-07-23T08:17:58;99214.19;;;19.11;95.01
4167;BME280;2097;51.104;7.150;2022-07-23T08:20:26;99217.78;;;19.10;94.76
4167;BME280;2097;51.104;7.150;2022-07-23T08:22:54;99217.88;;;19.19;94.35
4167;BME280;2097;51.104;7.150;2022-07-23T08:25:23;99217.50;;;19.24;93.18
4167;BME280;2097;51.104;7.150;2022-07-23T08:27:51;99212.66;;;19.29;92.82
4167;BME280;2097;51.104;7.150;2022-07-23T08:30:18;99220.88;;;19.45;92.04
4167;BME280;2097;51.104;7.150;2022-07-23T08:32:57;99157.31;;;19.19;91.52
4167;BME280;2097;51.104;7.150;2022-07-23T08:35:28;99222.34;;;19.67;90.36
4167;BME280;2097;51.104;7.150;2022-07-23T08:37:56;99228.31;;;19.69;90.19
4167;BME280;2097;51.104;7.150;2022-07-23T08:40:23;99175.56;;;19.41;89.48
4167;BME280;2097;51.104;7.150;2022-07-23T08:42:51;99232.78;;;19.78;88.96
4167;BME280;2097;51.104;7.150;2022-07-23T08:45:20;99230.03;;;19.89;88.45
4167;BME280;2097;51.104;7.150;2022-07-23T08:47:52;99228.16;;;20.01;87.74
4167;BME280;2097;51.104;7.150;2022-07-23T08:50:22;99177.19;;;19.81;87.24
4167;BME280;2097;51.104;7.150;2022-07-23T08:52:50;99232.88;;;20.26;85.84
4167;BME280;2097;51.104;7.150;2022-07-23T08:55:18;99234.97;;;20.22;86.00
4167;BME280;2097;51.104;7.150;2022-07-23T08:57:47;99235.13;;;20.21;85.30
4167;BME280;2097;51.104;7.150;2022-07-23T09:00:16;99206.25;;;20.00;85.62
4167;BME280;2097;51.104;7.150;2022-07-23T09:02:44;99245.41;;;20.33;85.11
4167;BME280;2097;51.104;7.150;2022-07-23T09:05:12;99244.16;;;20.47;84.42
4167;BME280;2097;51.104;7.150;2022-07-23T09:08:05;99250.94;;;20.49;84.23
4167;BME280;2097;51.104;7.150;2022-07-23T09:10:43;99244.53;;;20.70;83.19
4167;BME280;2097;51.104;7.150;2022-07-23T09:13:23;99237.03;;;20.75;82.33
4167;BME280;2097;51.104;7.150;2022-07-23T09:15:52;99248.59;;;20.84;81.90
4167;BME280;2097;51.104;7.150;2022-07-23T09:18:28;99255.69;;;20.83;82.09
4167;BME280;2097;51.104;7.150;2022-07-23T09:21:08;99191.09;;;20.59;81.52
4167;BME280;2097;51.104;7.150;2022-07-23T09:23:39;99250.03;;;21.15;80.68
4167;BME280;2097;51.104;7.150;2022-07-23T09:26:22;99251.09;;;21.41;79.62
4167;BME280;2097;51.104;7.150;2022-07-23T09:28:55;99252.13;;;21.57;78.73
4167;BME280;2097;51.104;7.150;2022-07-23T09:31:23;99259.81;;;21.60;78.20
4167;BME280;2097;51.104;7.150;2022-07-23T09:33:50;99249.38;;;21.59;78.36
4167;BME280;2097;51.104;7.150;2022-07-23T09:36:27;99251.53;;;21.73;77.99
4167;BME280;2097;51.104;7.150;2022-07-23T09:38:57;99186.06;;;21.30;77.45
4167;BME280;2097;51.104;7.150;2022-07-23T09:41:24;99257.22;;;21.78;77.36
4167;BME280;2097;51.104;7.150;2022-07-23T09:43:56;99261.59;;;21.87;76.51
4167;BME280;2097;51.104;7.150;2022-07-23T09:46:25;99269.41;;;21.88;76.25
4167;BME280;2097;51.104;7.150;2022-07-23T09:48:52;99257.34;;;21.76;76.35
4167;BME280;2097;51.104;7.150;2022-07-23T09:51:19;99263.72;;;21.83;76.43
4167;BME280;2097;51.104;7.150;2022-07-23T09:53:57;99263.63;;;22.02;75.69
4167;BME280;2097;51.104;7.150;2022-07-23T09:56:26;99258.78;;;22.15;74.81
4167;BME280;2097;51.104;7.150;2022-07-23T09:58:54;99187.59;;;21.87;73.87
4167;BME280;2097;51.104;7.150;2022-07-23T10:01:29;99261.88;;;22.37;73.65
4167;BME280;2097;51.104;7.150;2022-07-23T10:03:56;99263.63;;;22.46;73.17
4167;BME280;2097;51.104;7.150;2022-07-23T10:06:25;99261.88;;;22.55;72.78
4167;BME280;2097;51.104;7.150;2022-07-23T10:08:54;99265.41;;;22.63;72.40
4167;BME280;2097;51.104;7.150;2022-07-23T10:11:27;99263.44;;;22.65;71.41
4167;BME280;2097;51.104;7.150;2022-07-23T10:13:54;99264.59;;;22.63;71.64
4167;BME280;2097;51.104;7.150;2022-07-23T10:16:21;99253.03;;;22.64;71.38
4167;BME280;2097;51.104;7.150;2022-07-23T10:18:48;99243.22;;;22.56;71.71
4167;BME280;2097;51.104;7.150;2022-07-23T10:21:19;99255.38;;;22.67;71.28
4167;BME280;2097;51.104;7.150;2022-07-23T10:23:58;99254.66;;;22.82;70.91
4167;BME280;2097;51.104;7.150;2022-07-23T10:26:34;99251.56;;;22.87;70.13
4167;BME280;2097;51.104;7.150;2022-07-23T10:29:12;99257.56;;;22.71;70.42
4167;BME280;2097;51.104;7.150;2022-07-23T10:31:51;99222.03;;;22.56;70.29
4167;BME280;2097;51.104;7.150;2022-07-23T10:34:25;99236.47;;;22.62;70.39
4167;BME280;2097;51.104;7.150;2022-07-23T10:37:01;99247.34;;;22.76;70.03
4167;BME280;2097;51.104;7.150;2022-07-23T10:39:33;99247.06;;;23.05;69.10
4167;BME280;2097;51.104;7.150;2022-07-23T10:42:10;99244.13;;;23.08;68.14
4167;BME280;2097;51.104;7.150;2022-07-23T10:44:39;99228.94;;;23.10;67.46
4167;BME280;2097;51.104;7.150;2022-07-23T10:47:08;99245.75;;;23.26;67.01
4167;BME280;2097;51.104;7.150;2022-07-23T10:50:17;99231.91;;;23.14;66.11
4167;BME280;2097;51.104;7.150;2022-07-23T10:53:08;99201.09;;;23.13;65.79
4167;BME280;2097;51.104;7.150;2022-07-23T10:55:42;99236.63;;;23.54;65.04
4167;BME280;2097;51.104;7.150;2022-07-23T10:58:11;99238.66;;;23.68;64.73
4167;BME280;2097;51.104;7.150;2022-07-23T11:00:43;99243.31;;;23.74;63.93
4167;BME280;2097;51.104;7.150;2022-07-23T11:03:28;99243.72;;;23.79;63.23
4167;BME280;2097;51.104;7.150;2022-07-23T11:05:55;99237.41;;;23.80;63.26
4167;BME280;2097;51.104;7.150;2022-07-23T11:08:22;99249.41;;;23.92;62.35
4167;BME280;2097;51.104;7.150;2022-07-23T11:10:51;99243.81;;;24.11;61.94
4167;BME280;2097;51.104;7.150;2022-07-23T11:13:36;99244.84;;;24.26;60.99
4167;BME280;2097;51.104;7.150;2022-07-23T11:16:18;99250.50;;;24.46;60.39
4167;BME280;2097;51.104;7.150;2022-07-23T11:19:07;99243.22;;;24.32;60.32
4167;BME280;2097;51.104;7.150;2022-07-23T11:21:48;99245.22;;;24.38;60.17
4167;BME280;2097;51.104;7.150;2022-07-23T11:24:20;99245.09;;;24.56;60.23
4167;BME280;2097;51.104;7.150;2022-07-23T11:26:50;99229.16;;;24.64;59.61
4167;BME280;2097;51.104;7.150;2022-07-23T11:29:47;99243.91;;;24.98;58.87
4167;BME280;2097;51.104;7.150;2022-07-23T11:32:39;99241.59;;;24.87;58.36
4167;BME280;2097;51.104;7.150;2022-07-23T11:35:25;99235.28;;;24.48;59.36
4167;BME280;2097;51.104;7.150;2022-07-23T11:37:53;99248.13;;;24.12;59.70
4167;BME280;2097;51.104;7.150;2022-07-23T11:40:24;99231.38;;;24.11;60.17
4167;BME280;2097;51.104;7.150;2022-07-23T11:42:53;99236.75;;;24.43;59.67
4167;BME280;2097;51.104;7.150;2022-07-23T11:45:22;99250.56;;;24.78;58.84
4167;BME280;2097;51.104;7.150;2022-07-23T11:47:49;99238.94;;;24.87;57.92
4167;BME280;2097;51.104;7.150;2022-07-23T11:50:16;99240.94;;;24.93;57.04
4167;BME280;2097;51.104;7.150;2022-07-23T11:52:43;99229.63;;;24.83;56.48
4167;BME280;2097;51.104;7.150;2022-07-23T11:55:10;99236.28;;;24.87;56.39
4167;BME280;2097;51.104;7.150;2022-07-23T11:57:39;99218.00;;;25.00;56.38
4167;BME280;2097;51.104;7.150;2022-07-23T12:00:09;99236.91;;;25.29;55.67
4167;BME280;2097;51.104;7.150;2022-07-23T12:02:38;99243.34;;;25.43;55.73
4167;BME280;2097;51.104;7.150;2022-07-23T12:05:06;99232.38;;;25.46;55.50
4167;BME280;2097;51.104;7.150;2022-07-23T12:07:36;99249.47;;;25.59;54.30
4167;BME280;2097;51.104;7.150;2022-07-23T12:10:08;99243.78;;;25.62;54.10
4167;BME280;2097;51.104;7.150;2022-07-23T12:12:36;99245.59;;;25.69;54.83
4167;BME280;2097;51.104;7.150;2022-07-23T12:15:05;99234.78;;;25.71;53.65
4167;BME280;2097;51.104;7.150;2022-07-23T12:17:35;99234.25;;;25.75;53.86
4167;BME280;2097;51.104;7.150;2022-07-23T12:20:04;99235.28;;;25.82;53.48
4167;BME280;2097;51.104;7.150;2022-07-23T12:22:37;99239.53;;;25.99;53.40
4167;BME280;2097;51.104;7.150;2022-07-23T12:25:07;99228.22;;;25.97;52.66
4167;BME280;2097;51.104;7.150;2022-07-23T12:27:34;99232.84;;;26.03;52.51
4167;BME280;2097;51.104;7.150;2022-07-23T12:30:42;99244.94;;;26.14;52.35
4167;BME280;2097;51.104;7.150;2022-07-23T12:33:10;99247.25;;;26.17;52.10
4167;BME280;2097;51.104;7.150;2022-07-23T12:35:41;99234.75;;;26.17;51.66
4167;BME280;2097;51.104;7.150;2022-07-23T12:38:09;99239.84;;;26.27;51.38
4167;BME280;2097;51.104;7.150;2022-07-23T12:40:42;99243.34;;;26.27;51.14
4167;BME280;2097;51.104;7.150;2022-07-23T12:43:11;99241.84;;;26.25;51.52
4167;BME280;2097;51.104;7.150;2022-07-23T12:45:46;99242.56;;;26.41;51.34
4167;BME280;2097;51.104;7.150;2022-07-23T12:48:21;99237.28;;;26.64;50.81
4167;BME280;2097;51.104;7.150;2022-07-23T12:50:55;99216.09;;;26.70;50.89
4167;BME280;2097;51.104;7.150;2022-07-23T12:53:24;99250.97;;;26.97;51.16
4167;BME280;2097;51.104;7.150;2022-07-23T12:55:57;99248.78;;;27.01;50.30
4167;BME280;2097;51.104;7.150;2022-07-23T12:58:25;99254.19;;;26.93;50.10
4167;BME280;2097;51.104;7.150;2022-07-23T13:01:00;99259.88;;;27.12;50.25
4167;BME280;2097;51.104;7.150;2022-07-23T13:03:30;99250.59;;;27.23;49.46
4167;BME280;2097;51.104;7.150;2022-07-23T13:06:00;99248.78;;;27.23;49.66
4167;BME280;2097;51.104;7.150;2022-07-23T13:08:29;99253.19;;;27.45;49.09
4167;BME280;2097;51.104;7.150;2022-07-23T13:10:56;99259.25;;;27.54;49.06
4167;BME280;2097;51.104;7.150;2022-07-23T13:13:24;99271.16;;;27.51;48.79
4167;BME280;2097;51.104;7.150;2022-07-23T13:15:51;99253.13;;;27.39;48.32
4167;BME280;2097;51.104;7.150;2022-07-23T13:18:18;99262.50;;;27.49;48.53
4167;BME280;2097;51.104;7.150;2022-07-23T13:20:46;99265.88;;;27.58;47.61
4167;BME280;2097;51.104;7.150;2022-07-23T13:23:15;99267.00;;;27.63;47.42